Terminal Aerodrome Forecast
Issued by NWS

Home | Current Version | Previous Version | Text Only | Print | Product List | Glossary On
Versions: 1 2 3 4 5 6 7 8 9 10 11 12 13 14 15 16 17 18
000
FTUS43 KGRR 221142
TAFJXN
TAF
KJXN 221142Z 2212/2312 00000KT 1/4SM FG VV001
      TEMPO 2212/2216 1/2SM FG VV003
     FM221600 35004KT 1/2SM FG OVC004
     FM221800 02004KT 3/4SM BR OVC005
     FM230200 01005KT 1/4SM FG OVC003=

USA.gov is the U.S. government's official web portal to all federal, state and local government web resources and services.